createdAt,value
2018-11-21T00:00:41.183Z,2.94
2018-11-21T00:01:40.954Z,2.94
2018-11-21T00:02:41.028Z,2.94
2018-11-21T00:03:41.225Z,2.94
2018-11-21T00:04:40.892Z,2.94
2018-11-21T00:05:40.869Z,2.94
2018-11-21T00:06:40.846Z,2.87
2018-11-21T00:07:40.954Z,3
2018-11-21T00:08:41.182Z,2.94
2018-11-21T00:09:40.898Z,2.94
2018-11-21T00:10:40.840Z,2.94
2018-11-21T00:11:40.900Z,2.94
2018-11-21T00:12:40.841Z,2.94
2018-11-21T00:13:40.893Z,2.94
2018-11-21T00:14:40.936Z,2.94
2018-11-21T00:15:41.014Z,2.94
2018-11-21T00:16:41.010Z,2.94
2018-11-21T00:17:40.976Z,2.94
2018-11-21T00:18:40.845Z,2.94
2018-11-21T00:19:41.036Z,2.94
2018-11-21T00:20:41.276Z,2.87
2018-11-21T00:21:41.112Z,2.94
2018-11-21T00:22:41.234Z,2.94
2018-11-21T00:23:41.124Z,2.94
2018-11-21T00:24:40.862Z,2.87
2018-11-21T00:25:41.176Z,2.94
2018-11-21T00:26:41.322Z,2.94
2018-11-21T00:27:40.904Z,2.87
2018-11-21T00:28:40.890Z,2.87
2018-11-21T00:29:40.921Z,2.87
2018-11-21T00:30:40.967Z,2.87
2018-11-21T00:31:41.097Z,2.87
2018-11-21T00:32:41.157Z,2.87
2018-11-21T00:33:40.868Z,2.87
2018-11-21T00:34:40.893Z,2.81
2018-11-21T00:35:40.869Z,2.81
2018-11-21T00:36:41.179Z,2.81
2018-11-21T00:37:40.888Z,2.81
2018-11-21T00:38:40.837Z,2.81
2018-11-21T00:39:41.046Z,2.75
2018-11-21T00:40:41.170Z,2.81
2018-11-21T00:41:40.916Z,2.81
2018-11-21T00:42:46.796Z,2.81
2018-11-21T00:43:40.906Z,2.75
2018-11-21T00:44:40.980Z,2.75
2018-11-21T00:45:40.844Z,2.75
2018-11-21T00:46:41.131Z,2.75
2018-11-21T00:47:40.998Z,2.69
2018-11-21T00:48:40.861Z,2.75
2018-11-21T00:49:41.051Z,2.69
2018-11-21T00:50:40.968Z,2.69
2018-11-21T00:51:40.953Z,2.75
2018-11-21T00:52:40.865Z,2.75
2018-11-21T00:53:40.795Z,2.69
2018-11-21T00:54:40.937Z,2.69
2018-11-21T00:55:40.807Z,2.75
2018-11-21T00:56:41.011Z,2.75
2018-11-21T00:57:40.977Z,2.75
2018-11-21T00:58:40.945Z,2.75
2018-11-21T00:59:40.943Z,2.75
2018-11-21T01:00:40.880Z,2.75
2018-11-21T01:01:40.948Z,2.75
2018-11-21T01:02:40.824Z,2.75
2018-11-21T01:03:40.862Z,2.75
2018-11-21T01:04:40.876Z,2.75
2018-11-21T01:05:40.949Z,2.69
2018-11-21T01:06:40.954Z,2.75
2018-11-21T01:07:40.821Z,2.75
2018-11-21T01:08:40.904Z,2.69
2018-11-21T01:09:40.859Z,2.69
2018-11-21T01:10:40.816Z,2.69
2018-11-21T01:11:40.774Z,2.75
2018-11-21T01:12:41.116Z,2.69
2018-11-21T01:13:40.825Z,2.75
2018-11-21T01:14:40.847Z,2.69
2018-11-21T01:15:40.917Z,2.75
2018-11-21T01:16:41.629Z,2.69
2018-11-21T01:17:40.781Z,2.75
2018-11-21T01:18:40.818Z,2.69
2018-11-21T01:19:40.821Z,2.75
2018-11-21T01:20:41.121Z,2.75
2018-11-21T01:21:40.823Z,2.69
2018-11-21T01:22:41.055Z,2.75
2018-11-21T01:23:40.908Z,2.69
2018-11-21T01:24:40.894Z,2.69
2018-11-21T01:25:40.922Z,2.69
2018-11-21T01:26:40.932Z,2.69
2018-11-21T01:27:40.864Z,2.69
2018-11-21T01:28:40.825Z,2.69
2018-11-21T01:29:40.746Z,2.69
2018-11-21T01:30:40.750Z,2.69
2018-11-21T01:31:40.830Z,2.69
2018-11-21T01:32:40.835Z,2.69
2018-11-21T01:33:40.763Z,2.62
2018-11-21T01:34:40.781Z,2.69
2018-11-21T01:35:40.751Z,2.69
2018-11-21T01:36:41.033Z,2.69
2018-11-21T01:37:40.791Z,2.62
2018-11-21T01:38:40.754Z,2.69
2018-11-21T01:39:40.809Z,2.69
2018-11-21T01:40:40.892Z,2.69
2018-11-21T01:41:40.783Z,2.69
2018-11-21T01:42:41.867Z,2.69
2018-11-21T01:43:40.810Z,2.69
2018-11-21T01:44:40.887Z,2.69
2018-11-21T01:45:40.863Z,2.69
2018-11-21T01:46:41.048Z,2.69
2018-11-21T01:47:40.806Z,2.69
2018-11-21T01:48:40.697Z,2.69
2018-11-21T01:49:40.756Z,2.69
2018-11-21T01:50:40.796Z,2.69
2018-11-21T01:51:40.750Z,2.62
2018-11-21T01:52:40.909Z,2.69
2018-11-21T01:53:40.760Z,2.69
2018-11-21T01:54:40.726Z,2.69
2018-11-21T01:55:40.947Z,2.69
2018-11-21T01:56:40.813Z,2.69
2018-11-21T01:57:40.877Z,2.69
2018-11-21T01:58:40.695Z,2.69
2018-11-21T01:59:40.957Z,2.75
2018-11-21T02:00:40.841Z,2.69
2018-11-21T02:01:41.558Z,2.69
2018-11-21T02:02:40.878Z,2.69
2018-11-21T02:03:40.981Z,2.69
2018-11-21T02:04:41.232Z,2.62
2018-11-21T02:05:40.895Z,2.62
2018-11-21T02:06:40.752Z,2.69
2018-11-21T02:07:40.983Z,2.69
2018-11-21T02:08:40.922Z,2.62
2018-11-21T02:09:40.724Z,2.62
2018-11-21T02:10:40.835Z,2.62
2018-11-21T02:11:40.998Z,2.69
2018-11-21T02:12:40.740Z,2.62
2018-11-21T02:13:40.783Z,2.62
2018-11-21T02:14:41.552Z,2.62
2018-11-21T02:15:40.884Z,2.56
2018-11-21T02:16:40.904Z,2.56
2018-11-21T02:17:40.817Z,2.56
2018-11-21T02:18:40.802Z,2.56
2018-11-21T02:19:40.812Z,2.56
2018-11-21T02:20:40.952Z,2.56
2018-11-21T02:21:41.135Z,2.5
2018-11-21T02:22:40.727Z,2.5
2018-11-21T02:23:40.734Z,2.5
2018-11-21T02:24:41.129Z,2.56
2018-11-21T02:25:40.678Z,2.56
2018-11-21T02:26:41.050Z,2.5
2018-11-21T02:27:40.743Z,2.5
2018-11-21T02:28:40.758Z,2.5
2018-11-21T02:29:40.880Z,2.5
2018-11-21T02:30:40.787Z,2.5
2018-11-21T02:31:40.793Z,2.5
2018-11-21T02:32:40.940Z,2.56
2018-11-21T02:33:40.781Z,2.5
2018-11-21T02:34:40.692Z,2.5
2018-11-21T02:35:40.699Z,2.5
2018-11-21T02:36:40.746Z,2.5
2018-11-21T02:37:40.852Z,2.5
2018-11-21T02:38:40.823Z,2.5
2018-11-21T02:39:40.722Z,2.5
2018-11-21T02:40:40.943Z,2.56
2018-11-21T02:41:40.965Z,2.5
2018-11-21T02:42:40.753Z,2.5
2018-11-21T02:43:40.869Z,2.5
2018-11-21T02:44:40.820Z,2.56
2018-11-21T02:45:40.849Z,2.5
2018-11-21T02:46:40.745Z,2.5
2018-11-21T02:47:40.749Z,2.5
2018-11-21T02:48:40.692Z,2.5
2018-11-21T02:49:40.753Z,2.5
2018-11-21T02:50:40.655Z,2.5
2018-11-21T02:51:41.159Z,2.5
2018-11-21T02:52:40.702Z,2.5
2018-11-21T02:53:41.035Z,2.5
2018-11-21T02:54:40.936Z,2.5
2018-11-21T02:55:40.747Z,2.5
2018-11-21T02:56:40.668Z,2.5
2018-11-21T02:57:40.636Z,2.5
2018-11-21T02:58:40.700Z,2.5
2018-11-21T02:59:40.651Z,2.5
2018-11-21T03:00:40.864Z,2.5
2018-11-21T03:01:40.735Z,2.5
2018-11-21T03:02:40.761Z,2.5
2018-11-21T03:03:40.817Z,2.56
2018-11-21T03:04:40.733Z,2.5
2018-11-21T03:05:40.948Z,2.56
2018-11-21T03:06:40.717Z,2.56
2018-11-21T03:07:40.755Z,2.56
2018-11-21T03:08:40.685Z,2.56
2018-11-21T03:09:40.621Z,2.56
2018-11-21T03:10:40.700Z,2.5
2018-11-21T03:11:40.668Z,2.5
2018-11-21T03:12:40.661Z,2.5
2018-11-21T03:13:40.715Z,2.56
2018-11-21T03:14:40.601Z,2.56
2018-11-21T03:15:40.647Z,2.56
2018-11-21T03:16:40.977Z,2.5
2018-11-21T03:17:40.657Z,2.5
2018-11-21T03:18:40.645Z,2.56
2018-11-21T03:19:40.655Z,2.5
2018-11-21T03:20:40.694Z,2.5
2018-11-21T03:21:40.717Z,2.56
2018-11-21T03:22:41.096Z,2.5
2018-11-21T03:23:40.615Z,2.5
2018-11-21T03:24:40.642Z,2.56
2018-11-21T03:25:40.693Z,2.5
2018-11-21T03:26:40.598Z,2.56
2018-11-21T03:27:40.627Z,2.56
2018-11-21T03:28:40.734Z,2.5
2018-11-21T03:29:40.623Z,2.56
2018-11-21T03:30:40.715Z,2.56
2018-11-21T03:31:40.649Z,2.56
2018-11-21T03:32:40.740Z,2.56
2018-11-21T03:33:40.635Z,2.56
2018-11-21T03:34:40.604Z,2.56
2018-11-21T03:35:40.703Z,2.56
2018-11-21T03:36:40.618Z,2.56
2018-11-21T03:37:40.723Z,2.56
2018-11-21T03:38:40.574Z,2.56
2018-11-21T03:39:41.061Z,2.56
2018-11-21T03:40:40.852Z,2.56
2018-11-21T03:41:40.577Z,2.56
2018-11-21T03:42:41.007Z,2.5
2018-11-21T03:43:40.800Z,2.56
2018-11-21T03:44:40.656Z,2.56
2018-11-21T03:45:40.741Z,2.5
2018-11-21T03:46:40.593Z,2.5
2018-11-21T03:47:40.872Z,2.5
2018-11-21T03:48:40.696Z,2.5
2018-11-21T03:49:40.816Z,2.44
2018-11-21T03:50:40.588Z,2.44
2018-11-21T03:51:40.685Z,2.5
2018-11-21T03:52:40.570Z,2.44
2018-11-21T03:53:40.564Z,2.44
2018-11-21T03:54:40.621Z,2.44
2018-11-21T03:55:40.827Z,2.44
2018-11-21T03:56:40.968Z,2.44
2018-11-21T03:57:40.689Z,2.44
2018-11-21T03:58:40.577Z,2.44
2018-11-21T03:59:40.519Z,2.44
2018-11-21T04:00:40.659Z,2.44
2018-11-21T04:01:40.567Z,2.44
2018-11-21T04:02:40.626Z,2.44
2018-11-21T04:03:40.549Z,2.37
2018-11-21T04:04:40.690Z,2.37
2018-11-21T04:05:40.683Z,2.44
2018-11-21T04:06:40.800Z,2.37
2018-11-21T04:07:40.859Z,2.37
2018-11-21T04:08:43.063Z,2.37
2018-11-21T04:09:40.752Z,2.44
2018-11-21T04:10:40.629Z,2.44
2018-11-21T04:11:40.700Z,2.44
2018-11-21T04:12:40.785Z,2.37
2018-11-21T04:13:40.925Z,2.37
2018-11-21T04:14:40.550Z,2.37
2018-11-21T04:15:40.590Z,2.37
2018-11-21T04:16:40.639Z,2.37
2018-11-21T04:17:40.557Z,2.37
2018-11-21T04:18:40.700Z,2.37
2018-11-21T04:19:40.738Z,2.37
2018-11-21T04:20:40.565Z,2.37
2018-11-21T04:21:40.568Z,2.37
2018-11-21T04:22:40.584Z,2.44
2018-11-21T04:23:40.687Z,2.44
2018-11-21T04:24:40.612Z,2.37
2018-11-21T04:25:40.600Z,2.37
2018-11-21T04:26:40.568Z,2.37
2018-11-21T04:27:40.794Z,2.37
2018-11-21T04:28:40.667Z,2.37
2018-11-21T04:29:40.557Z,2.37
2018-11-21T04:30:40.575Z,2.37
2018-11-21T04:31:40.935Z,2.31
2018-11-21T04:32:40.605Z,2.37
2018-11-21T04:33:40.715Z,2.31
2018-11-21T04:34:40.710Z,2.37
2018-11-21T04:35:40.658Z,2.37
2018-11-21T04:36:40.803Z,2.37
2018-11-21T04:37:40.728Z,2.37
2018-11-21T04:38:40.580Z,2.37
2018-11-21T04:39:40.884Z,2.37
2018-11-21T04:40:40.713Z,2.37
2018-11-21T04:41:40.626Z,2.37
2018-11-21T04:42:40.768Z,2.37
2018-11-21T04:43:40.529Z,2.37
2018-11-21T04:44:40.606Z,2.37
2018-11-21T04:45:40.933Z,2.37
2018-11-21T04:46:40.503Z,2.37
2018-11-21T04:47:40.522Z,2.37
2018-11-21T04:48:40.587Z,2.37
2018-11-21T04:49:40.495Z,2.37
2018-11-21T04:50:40.581Z,2.37
2018-11-21T04:51:40.540Z,2.31
2018-11-21T04:52:40.561Z,2.31
2018-11-21T04:53:40.580Z,2.37
2018-11-21T04:54:40.520Z,2.31
2018-11-21T04:55:40.610Z,2.31
2018-11-21T04:56:40.505Z,2.31
2018-11-21T04:57:40.518Z,2.31
2018-11-21T04:58:40.520Z,2.25
2018-11-21T04:59:40.471Z,2.31
2018-11-21T05:00:40.705Z,2.31
2018-11-21T05:01:40.485Z,2.31
2018-11-21T05:02:40.480Z,2.31
2018-11-21T05:03:40.493Z,2.31
2018-11-21T05:04:40.487Z,2.25
2018-11-21T05:05:40.871Z,2.31
2018-11-21T05:06:40.499Z,2.31
2018-11-21T05:07:40.465Z,2.31
2018-11-21T05:08:40.535Z,2.25
2018-11-21T05:09:40.470Z,2.31
2018-11-21T05:10:41.323Z,2.31
2018-11-21T05:11:40.568Z,2.31
2018-11-21T05:12:40.702Z,2.31
2018-11-21T05:13:40.486Z,2.31
2018-11-21T05:14:40.561Z,2.25
2018-11-21T05:15:40.503Z,2.31
2018-11-21T05:16:40.426Z,2.25
2018-11-21T05:17:41.331Z,2.25
2018-11-21T05:18:40.588Z,2.25
2018-11-21T05:19:40.478Z,2.31
2018-11-21T05:20:40.776Z,2.25
2018-11-21T05:21:40.659Z,2.31
2018-11-21T05:22:40.700Z,2.25
2018-11-21T05:23:40.479Z,2.25
2018-11-21T05:24:40.563Z,2.31
2018-11-21T05:25:40.536Z,2.25
2018-11-21T05:26:40.545Z,2.25
2018-11-21T05:27:40.467Z,2.25
2018-11-21T05:28:40.624Z,2.31
2018-11-21T05:29:40.685Z,2.31
2018-11-21T05:30:40.646Z,2.31
2018-11-21T05:31:40.687Z,2.31
2018-11-21T05:32:40.800Z,2.31
2018-11-21T05:33:40.654Z,2.31
2018-11-21T05:34:40.547Z,2.37
2018-11-21T05:35:40.500Z,2.37
2018-11-21T05:36:40.583Z,2.37
2018-11-21T05:37:40.575Z,2.31
2018-11-21T05:38:40.525Z,2.31
2018-11-21T05:39:40.513Z,2.31
2018-11-21T05:40:40.614Z,2.31
2018-11-21T05:41:40.464Z,2.31
2018-11-21T05:42:40.498Z,2.31
2018-11-21T05:43:40.482Z,2.31
2018-11-21T05:44:40.437Z,2.31
2018-11-21T05:45:40.571Z,2.31
2018-11-21T05:46:40.545Z,2.31
2018-11-21T05:47:40.641Z,2.31
2018-11-21T05:48:40.492Z,2.31
2018-11-21T05:49:40.408Z,2.31
2018-11-21T05:50:40.752Z,2.31
2018-11-21T05:51:40.571Z,2.31
2018-11-21T05:52:41.687Z,2.31
2018-11-21T05:53:40.634Z,2.31
2018-11-21T05:54:40.588Z,2.31
2018-11-21T05:55:40.588Z,2.31
2018-11-21T05:56:40.444Z,2.31
2018-11-21T05:57:40.790Z,2.31
2018-11-21T05:58:40.464Z,2.25
2018-11-21T05:59:40.541Z,2.25
2018-11-21T06:00:40.487Z,2.25
2018-11-21T06:01:40.466Z,2.25
2018-11-21T06:02:40.589Z,2.25
2018-11-21T06:03:40.449Z,2.25
2018-11-21T06:04:40.476Z,2.25
2018-11-21T06:05:40.435Z,2.31
2018-11-21T06:06:40.340Z,2.31
2018-11-21T06:07:40.551Z,2.37
2018-11-21T06:08:40.378Z,2.37
2018-11-21T06:09:40.414Z,2.37
2018-11-21T06:10:40.471Z,2.37
2018-11-21T06:11:40.677Z,2.44
2018-11-21T06:12:40.414Z,2.44
2018-11-21T06:13:40.353Z,2.44
2018-11-21T06:14:40.427Z,2.44
2018-11-21T06:15:40.344Z,2.44
2018-11-21T06:16:40.564Z,2.5
2018-11-21T06:17:40.405Z,2.44
2018-11-21T06:18:40.656Z,2.5
2018-11-21T06:19:40.409Z,2.5
2018-11-21T06:20:40.664Z,2.5
2018-11-21T06:21:40.458Z,2.56
2018-11-21T06:22:40.336Z,2.56
2018-11-21T06:23:40.615Z,2.62
2018-11-21T06:24:40.392Z,2.56
2018-11-21T06:25:40.620Z,2.56
2018-11-21T06:26:40.365Z,2.56
2018-11-21T06:27:40.348Z,2.56
2018-11-21T06:28:40.925Z,2.5
2018-11-21T06:29:40.337Z,2.5
2018-11-21T06:30:40.324Z,2.5
2018-11-21T06:31:40.393Z,2.5
2018-11-21T06:32:40.382Z,2.5
2018-11-21T06:33:40.396Z,2.37
2018-11-21T06:34:40.350Z,2.44
2018-11-21T06:35:40.381Z,2.44
2018-11-21T06:36:40.710Z,2.44
2018-11-21T06:37:40.407Z,2.44
2018-11-21T06:38:40.338Z,2.37
2018-11-21T06:39:40.789Z,2.31
2018-11-21T06:40:40.352Z,2.37
2018-11-21T06:41:40.379Z,2.31
2018-11-21T06:42:40.328Z,2.31
2018-11-21T06:43:40.332Z,2.25
2018-11-21T06:44:40.581Z,2.31
2018-11-21T06:45:40.551Z,2.25
2018-11-21T06:46:40.418Z,2.25
2018-11-21T06:47:40.356Z,2.19
2018-11-21T06:48:40.536Z,2.25
2018-11-21T06:49:40.660Z,2.19
2018-11-21T06:50:40.466Z,2.19
2018-11-21T06:51:40.930Z,2.19
2018-11-21T06:52:40.293Z,2.12
2018-11-21T06:53:40.351Z,2.12
2018-11-21T06:54:40.390Z,2.12
2018-11-21T06:55:40.448Z,2.06
2018-11-21T06:56:40.569Z,2.12
2018-11-21T06:57:40.651Z,2.06
2018-11-21T06:58:40.492Z,2.06
2018-11-21T06:59:40.543Z,2.06
2018-11-21T07:00:40.328Z,2.06
2018-11-21T07:01:40.422Z,2.06
2018-11-21T07:02:40.444Z,2.06
2018-11-21T07:03:40.686Z,2
2018-11-21T07:04:40.826Z,2
2018-11-21T07:05:40.493Z,2
2018-11-21T07:06:40.603Z,2
2018-11-21T07:07:40.513Z,2.06
2018-11-21T07:08:40.342Z,2.06
2018-11-21T07:09:40.647Z,2.06
2018-11-21T07:10:40.400Z,2
2018-11-21T07:11:40.251Z,2
2018-11-21T07:12:40.535Z,2
2018-11-21T07:13:40.433Z,1.94
2018-11-21T07:14:40.569Z,1.94
2018-11-21T07:15:40.318Z,1.94
2018-11-21T07:16:40.353Z,1.94
2018-11-21T07:17:40.407Z,1.94
2018-11-21T07:18:40.510Z,1.94
2018-11-21T07:19:40.320Z,1.94
2018-11-21T07:20:40.354Z,1.94
2018-11-21T07:21:40.601Z,1.87
2018-11-21T07:22:40.278Z,1.94
2018-11-21T07:23:40.325Z,1.94
2018-11-21T07:24:40.352Z,1.94
2018-11-21T07:25:40.501Z,1.94
2018-11-21T07:26:40.771Z,1.94
2018-11-21T07:27:40.587Z,2
2018-11-21T07:28:40.365Z,1.94
2018-11-21T07:29:40.475Z,1.94
2018-11-21T07:30:40.481Z,1.94
2018-11-21T07:31:40.769Z,1.94
2018-11-21T07:32:40.715Z,1.94
2018-11-21T07:33:46.569Z,2
2018-11-21T07:34:40.315Z,2
2018-11-21T07:35:40.321Z,2
2018-11-21T07:36:40.356Z,2
2018-11-21T07:37:40.299Z,2
2018-11-21T07:38:40.314Z,2
2018-11-21T07:39:40.367Z,2.06
2018-11-21T07:40:40.548Z,2
2018-11-21T07:41:40.316Z,2
2018-11-21T07:42:40.553Z,2.12
2018-11-21T07:43:41.165Z,2.06
2018-11-21T07:44:40.539Z,2.06
2018-11-21T07:45:40.463Z,2.12
2018-11-21T07:46:40.455Z,2.12
2018-11-21T07:47:40.353Z,2.12
2018-11-21T07:48:40.294Z,2.12
2018-11-21T07:49:41.119Z,2.12
2018-11-21T07:50:40.509Z,2.12
2018-11-21T07:51:40.355Z,2.12
2018-11-21T07:52:40.296Z,2.12
2018-11-21T07:53:40.284Z,2.12
2018-11-21T07:54:40.294Z,2.12
2018-11-21T07:55:40.602Z,2.12
2018-11-21T07:56:40.286Z,2.12
2018-11-21T07:57:40.436Z,2.12
2018-11-21T07:58:40.275Z,2.19
2018-11-21T07:59:40.282Z,2.19
2018-11-21T08:00:40.262Z,2.25
2018-11-21T08:01:40.503Z,2.25
2018-11-21T08:02:40.352Z,2.25
2018-11-21T08:03:40.491Z,2.25
2018-11-21T08:04:40.260Z,2.25
2018-11-21T08:05:44.749Z,2.25
2018-11-21T08:06:40.429Z,2.25
2018-11-21T08:07:40.516Z,2.25
2018-11-21T08:08:40.221Z,2.31
2018-11-21T08:09:40.292Z,2.25
2018-11-21T08:10:40.341Z,2.31
2018-11-21T08:11:40.351Z,2.31
2018-11-21T08:12:40.254Z,2.31
2018-11-21T08:13:40.267Z,2.31
2018-11-21T08:14:40.278Z,2.31
2018-11-21T08:15:40.210Z,2.31
2018-11-21T08:16:40.251Z,2.31
2018-11-21T08:17:40.594Z,2.31
2018-11-21T08:18:40.334Z,2.37
2018-11-21T08:19:40.303Z,2.37
2018-11-21T08:20:40.608Z,2.37
2018-11-21T08:21:40.257Z,2.37
2018-11-21T08:22:40.439Z,2.37
2018-11-21T08:23:40.256Z,2.37
2018-11-21T08:24:40.686Z,2.37
2018-11-21T08:25:40.215Z,2.37
2018-11-21T08:26:40.425Z,2.37
2018-11-21T08:27:40.512Z,2.44
2018-11-21T08:28:40.463Z,2.44
2018-11-21T08:29:40.876Z,2.44
2018-11-21T08:30:40.510Z,2.44
2018-11-21T08:31:40.427Z,2.5
2018-11-21T08:32:40.327Z,2.5
2018-11-21T08:33:40.295Z,2.5
2018-11-21T08:34:40.300Z,2.5
2018-11-21T08:35:40.436Z,2.5
2018-11-21T08:36:40.317Z,2.56
2018-11-21T08:37:40.386Z,2.5
2018-11-21T08:38:40.401Z,2.5
2018-11-21T08:39:40.560Z,2.56
2018-11-21T08:40:40.213Z,2.5
2018-11-21T08:41:40.661Z,2.56
2018-11-21T08:42:40.195Z,2.56
2018-11-21T08:43:40.530Z,2.56
2018-11-21T08:44:40.494Z,2.56
2018-11-21T08:45:40.283Z,2.56
2018-11-21T08:46:40.269Z,2.62
2018-11-21T08:47:40.394Z,2.56
2018-11-21T08:48:40.186Z,2.62
2018-11-21T08:49:40.157Z,2.56
2018-11-21T08:50:40.163Z,2.62
2018-11-21T08:51:40.405Z,2.56
2018-11-21T08:52:40.399Z,2.62
2018-11-21T08:53:40.215Z,2.62
2018-11-21T08:54:40.329Z,2.56
2018-11-21T08:55:40.420Z,2.56
2018-11-21T08:56:40.223Z,2.56
2018-11-21T08:57:40.585Z,2.56
2018-11-21T08:58:40.412Z,2.56
2018-11-21T08:59:40.373Z,2.56
2018-11-21T09:00:40.201Z,2.56
2018-11-21T09:01:40.594Z,2.56
2018-11-21T09:02:40.182Z,2.56
2018-11-21T09:03:40.124Z,2.56
2018-11-21T09:04:40.207Z,2.56
2018-11-21T09:05:40.252Z,2.56
2018-11-21T09:06:40.615Z,2.5
2018-11-21T09:07:40.125Z,2.5
2018-11-21T09:08:40.291Z,2.5
2018-11-21T09:09:40.201Z,2.56
2018-11-21T09:10:40.357Z,2.56
2018-11-21T09:11:40.256Z,2.56
2018-11-21T09:12:40.218Z,2.62
2018-11-21T09:13:40.222Z,2.62
2018-11-21T09:14:40.468Z,2.62
2018-11-21T09:15:40.477Z,2.62
2018-11-21T09:16:40.960Z,2.62
2018-11-21T09:17:40.179Z,2.69
2018-11-21T09:18:40.295Z,2.69
2018-11-21T09:19:40.199Z,2.69
2018-11-21T09:20:40.240Z,2.69
2018-11-21T09:21:40.455Z,2.75
2018-11-21T09:22:40.111Z,2.69
2018-11-21T09:23:40.271Z,2.69
2018-11-21T09:24:40.202Z,2.75
2018-11-21T09:25:40.265Z,2.75
2018-11-21T09:26:40.353Z,2.75
2018-11-21T09:27:40.105Z,2.75
2018-11-21T09:28:40.201Z,2.75
2018-11-21T09:29:40.211Z,2.75
2018-11-21T09:30:40.295Z,2.75
2018-11-21T09:31:40.096Z,2.75
2018-11-21T09:32:40.154Z,2.75
2018-11-21T09:33:40.482Z,2.81
2018-11-21T09:34:40.202Z,2.81
2018-11-21T09:35:40.134Z,2.81
2018-11-21T09:36:40.272Z,2.81
2018-11-21T09:37:40.173Z,2.87
2018-11-21T09:38:40.249Z,2.87
2018-11-21T09:39:40.181Z,2.87
2018-11-21T09:40:40.095Z,2.87
2018-11-21T09:41:40.157Z,2.94
2018-11-21T09:42:40.092Z,2.94
2018-11-21T09:43:40.118Z,2.94
2018-11-21T09:44:40.078Z,3
2018-11-21T09:45:40.150Z,3
2018-11-21T09:46:40.083Z,2.94
2018-11-21T09:47:40.105Z,3
2018-11-21T09:48:40.226Z,3
2018-11-21T09:49:40.177Z,2.94
2018-11-21T09:50:40.150Z,3
2018-11-21T09:51:40.068Z,3
2018-11-21T09:52:40.809Z,3.06
2018-11-21T09:53:40.081Z,3.06
2018-11-21T09:54:40.098Z,3.06
2018-11-21T09:55:40.824Z,3.06
2018-11-21T09:56:40.293Z,3.06
2018-11-21T09:57:40.167Z,3
2018-11-21T09:58:40.453Z,3.06
2018-11-21T09:59:40.298Z,3.06
2018-11-21T10:00:40.322Z,3.12
2018-11-21T10:01:40.190Z,3.06
2018-11-21T10:02:40.497Z,3.12
2018-11-21T10:03:40.316Z,3.12
2018-11-21T10:04:40.161Z,3.12
2018-11-21T10:05:40.192Z,3.06
2018-11-21T10:06:40.039Z,3.19
2018-11-21T10:07:40.326Z,3.12
2018-11-21T10:08:40.252Z,3.19
2018-11-21T10:09:40.110Z,3.12
2018-11-21T10:10:40.143Z,3.19
2018-11-21T10:11:40.138Z,3.19
2018-11-21T10:12:40.542Z,3.19
2018-11-21T10:13:40.196Z,3.25
2018-11-21T10:14:40.208Z,3.19
2018-11-21T10:15:40.375Z,3.25
2018-11-21T10:16:40.134Z,3.19
2018-11-21T10:17:40.152Z,3.25
2018-11-21T10:18:40.277Z,3.25
2018-11-21T10:19:40.110Z,3.31
2018-11-21T10:20:40.268Z,3.31
2018-11-21T10:21:40.048Z,3.31
2018-11-21T10:22:40.131Z,3.25
2018-11-21T10:23:40.443Z,3.31
2018-11-21T10:24:40.036Z,3.31
2018-11-21T10:25:40.144Z,3.31
2018-11-21T10:26:40.396Z,3.25
2018-11-21T10:27:40.664Z,3.31
2018-11-21T10:28:40.242Z,3.25
2018-11-21T10:29:40.193Z,3.25
2018-11-21T10:30:40.232Z,3.19
2018-11-21T10:31:40.203Z,3.25
2018-11-21T10:32:40.147Z,3.12
2018-11-21T10:33:40.050Z,3.19
2018-11-21T10:34:40.297Z,3.19
2018-11-21T10:35:40.072Z,3.19
2018-11-21T10:36:40.345Z,3.19
2018-11-21T10:37:40.125Z,3.25
2018-11-21T10:38:40.335Z,3.25
2018-11-21T10:39:40.124Z,3.25
2018-11-21T10:40:40.033Z,3.25
2018-11-21T10:41:40.012Z,3.19
2018-11-21T10:42:40.048Z,3.19
2018-11-21T10:43:40.846Z,3.19
2018-11-21T10:44:39.992Z,3.19
2018-11-21T10:45:40.272Z,3.19
2018-11-21T10:46:40.225Z,3.25
2018-11-21T10:47:40.184Z,3.19
2018-11-21T10:48:40.114Z,3.25
2018-11-21T10:49:40.100Z,3.19
2018-11-21T10:50:40.258Z,3.25
2018-11-21T10:51:40.147Z,3.19
2018-11-21T10:52:40.218Z,3.25
2018-11-21T10:53:40.162Z,3.19
2018-11-21T10:54:40.256Z,3.25
2018-11-21T10:55:42.528Z,3.19
2018-11-21T10:56:40.129Z,3.25
2018-11-21T10:57:40.038Z,3.25
2018-11-21T10:58:39.992Z,3.25
2018-11-21T10:59:40.154Z,3.25
2018-11-21T11:00:40.149Z,3.25
2018-11-21T11:01:40.123Z,3.25
2018-11-21T11:02:40.188Z,3.31
2018-11-21T11:03:39.990Z,3.25
2018-11-21T11:04:39.973Z,3.25
2018-11-21T11:05:40.175Z,3.31
2018-11-21T11:06:40.363Z,3.31
2018-11-21T11:07:40.127Z,3.31
2018-11-21T11:08:40.132Z,3.25
2018-11-21T11:09:39.954Z,3.31
2018-11-21T11:10:40.018Z,3.31
2018-11-21T11:11:39.980Z,3.37
2018-11-21T11:12:40.261Z,3.37
2018-11-21T11:13:39.979Z,3.44
2018-11-21T11:14:39.982Z,3.37
2018-11-21T11:15:39.979Z,3.44
2018-11-21T11:16:39.968Z,3.44
2018-11-21T11:17:40.195Z,3.5
2018-11-21T11:18:39.971Z,3.5
2018-11-21T11:19:40.057Z,3.56
2018-11-21T11:20:40.011Z,3.56
2018-11-21T11:21:39.972Z,3.5
2018-11-21T11:22:40.007Z,3.5
2018-11-21T11:23:40.004Z,3.5
2018-11-21T11:24:40.006Z,3.44
2018-11-21T11:25:39.964Z,3.44
2018-11-21T11:26:40.155Z,3.44
2018-11-21T11:27:40.132Z,3.37
2018-11-21T11:28:40.122Z,3.37
2018-11-21T11:29:39.976Z,3.37
2018-11-21T11:30:40.069Z,3.37
2018-11-21T11:31:40.006Z,3.37
2018-11-21T11:32:40.234Z,3.44
2018-11-21T11:33:40.216Z,3.37
2018-11-21T11:34:40.439Z,3.44
2018-11-21T11:35:40.260Z,3.37
2018-11-21T11:36:40.163Z,3.44
2018-11-21T11:37:40.182Z,3.44
2018-11-21T11:38:39.985Z,3.44
2018-11-21T11:39:40.094Z,3.37
2018-11-21T11:40:40.129Z,3.44
2018-11-21T11:41:40.144Z,3.37
2018-11-21T11:42:40.140Z,3.44
2018-11-21T11:43:40.214Z,3.44
2018-11-21T11:44:40.129Z,3.5
2018-11-21T11:45:39.979Z,3.44
2018-11-21T11:46:39.998Z,3.5
2018-11-21T11:47:39.937Z,3.5
2018-11-21T11:48:40.213Z,3.5
2018-11-21T11:49:39.880Z,3.5
2018-11-21T11:50:40.222Z,3.5
2018-11-21T11:51:39.960Z,3.5
2018-11-21T11:52:39.969Z,3.56
2018-11-21T11:53:40.201Z,3.56
2018-11-21T11:54:39.973Z,3.5
2018-11-21T11:55:40.076Z,3.56
2018-11-21T11:56:40.764Z,3.56
2018-11-21T11:57:40.159Z,3.62
2018-11-21T11:58:40.249Z,3.62
2018-11-21T11:59:39.999Z,3.62
2018-11-21T12:00:40.124Z,3.62
2018-11-21T12:01:39.981Z,3.62
2018-11-21T12:02:39.915Z,3.62
2018-11-21T12:03:39.901Z,3.62
2018-11-21T12:04:39.923Z,3.62
2018-11-21T12:05:39.936Z,3.62
2018-11-21T12:06:40.091Z,3.56
2018-11-21T12:07:39.860Z,3.62
2018-11-21T12:08:39.890Z,3.62
2018-11-21T12:09:39.900Z,3.62
2018-11-21T12:10:39.976Z,3.62
2018-11-21T12:11:39.966Z,3.62
2018-11-21T12:12:40.504Z,3.62
2018-11-21T12:13:40.021Z,3.62
2018-11-21T12:14:39.921Z,3.62
2018-11-21T12:15:40.404Z,3.62
2018-11-21T12:16:40.254Z,3.62
2018-11-21T12:17:40.007Z,3.62
2018-11-21T12:18:39.946Z,3.69
2018-11-21T12:19:39.969Z,3.62
2018-11-21T12:20:40.012Z,3.69
2018-11-21T12:21:40.052Z,3.62
2018-11-21T12:22:40.144Z,3.69
2018-11-21T12:23:39.940Z,3.62
2018-11-21T12:24:39.898Z,3.69
2018-11-21T12:25:39.845Z,3.62
2018-11-21T12:26:40.076Z,3.69
2018-11-21T12:27:39.945Z,3.62
2018-11-21T12:28:40.156Z,3.69
2018-11-21T12:29:42.307Z,3.69
2018-11-21T12:30:39.830Z,3.69
2018-11-21T12:31:39.870Z,3.69
2018-11-21T12:32:39.991Z,3.69
2018-11-21T12:33:40.195Z,3.62
2018-11-21T12:34:40.017Z,3.69
2018-11-21T12:35:39.897Z,3.69
2018-11-21T12:36:39.940Z,3.69
2018-11-21T12:37:39.997Z,3.69
2018-11-21T12:38:39.995Z,3.69
2018-11-21T12:39:39.933Z,3.69
2018-11-21T12:40:39.887Z,3.75
2018-11-21T12:41:39.924Z,3.69
2018-11-21T12:42:39.952Z,3.75
2018-11-21T12:43:39.924Z,3.75
2018-11-21T12:44:39.855Z,3.69
2018-11-21T12:45:39.920Z,3.75
2018-11-21T12:46:39.822Z,3.69
2018-11-21T12:47:39.898Z,3.75
2018-11-21T12:48:39.856Z,3.69
2018-11-21T12:49:39.921Z,3.75
2018-11-21T12:50:39.919Z,3.69
2018-11-21T12:51:39.827Z,3.75
2018-11-21T12:52:39.870Z,3.69
2018-11-21T12:53:39.896Z,3.69
2018-11-21T12:54:39.869Z,3.69
2018-11-21T12:55:39.892Z,3.75
2018-11-21T12:56:39.808Z,3.69
2018-11-21T12:57:39.830Z,3.69
2018-11-21T12:58:39.823Z,3.75
2018-11-21T12:59:39.825Z,3.75
2018-11-21T13:00:39.930Z,3.75
2018-11-21T13:01:39.845Z,3.75
2018-11-21T13:02:39.828Z,3.81
2018-11-21T13:03:39.898Z,3.75
2018-11-21T13:04:39.849Z,3.81
2018-11-21T13:05:39.866Z,3.81
2018-11-21T13:06:40.119Z,3.81
2018-11-21T13:07:39.857Z,3.81
2018-11-21T13:08:40.075Z,3.81
2018-11-21T13:09:39.916Z,3.81
2018-11-21T13:10:39.955Z,3.81
2018-11-21T13:11:39.852Z,3.81
2018-11-21T13:12:40.185Z,3.81
2018-11-21T13:13:39.959Z,3.81
2018-11-21T13:14:40.392Z,3.87
2018-11-21T13:15:43.928Z,3.81
2018-11-21T13:16:39.979Z,3.81
2018-11-21T13:17:40.346Z,3.81
2018-11-21T13:18:39.879Z,3.81
2018-11-21T13:19:39.837Z,3.81
2018-11-21T13:20:40.116Z,3.75
2018-11-21T13:21:39.787Z,3.75
2018-11-21T13:22:39.991Z,3.75
2018-11-21T13:23:39.880Z,3.75